createdAt,value
2018-04-30T00:02:23.856Z,61.90
2018-04-30T00:04:50.100Z,62.10
2018-04-30T00:07:16.337Z,62.50
2018-04-30T00:09:42.563Z,62.90
2018-04-30T00:12:08.761Z,62.90
2018-04-30T00:14:34.981Z,63.70
2018-04-30T00:17:01.229Z,64.20
2018-04-30T00:19:27.448Z,64.50
2018-04-30T00:21:53.663Z,64.10
2018-04-30T00:24:19.905Z,63.90
2018-04-30T00:26:46.103Z,64.00
2018-04-30T00:29:12.330Z,63.60
2018-04-30T00:31:38.531Z,63.70
2018-04-30T00:34:05.152Z,63.40
2018-04-30T00:36:31.399Z,63.40
2018-04-30T00:38:57.991Z,62.80
2018-04-30T00:41:24.221Z,62.80
2018-04-30T00:43:50.438Z,62.30
2018-04-30T00:46:16.704Z,62.50
2018-04-30T00:48:42.924Z,62.00
2018-04-30T00:51:09.133Z,62.80
2018-04-30T00:53:35.318Z,63.70
2018-04-30T00:56:01.579Z,63.40
2018-04-30T00:58:28.382Z,64.00
2018-04-30T01:00:54.588Z,64.00
2018-04-30T01:03:20.822Z,64.40
2018-04-30T01:05:47.432Z,65.00
2018-04-30T01:08:13.647Z,65.00
2018-04-30T01:10:39.892Z,64.70
2018-04-30T01:13:06.111Z,65.00
2018-04-30T01:15:32.336Z,65.70
2018-04-30T01:17:58.532Z,66.40
2018-04-30T01:20:24.754Z,66.90
2018-04-30T01:22:50.946Z,66.50
2018-04-30T01:25:17.328Z,66.60
2018-04-30T01:27:43.517Z,65.80
2018-04-30T01:30:09.782Z,63.30
2018-04-30T01:32:35.976Z,62.10
2018-04-30T01:35:02.207Z,62.00
2018-04-30T01:37:28.462Z,60.90
2018-04-30T01:39:54.702Z,62.70
2018-04-30T01:42:20.923Z,62.60
2018-04-30T01:44:47.176Z,62.80
2018-04-30T01:47:13.374Z,64.40
2018-04-30T01:49:39.582Z,67.10
2018-04-30T01:52:05.831Z,68.50
2018-04-30T01:54:32.083Z,69.50
2018-04-30T01:56:58.362Z,69.60
2018-04-30T01:59:24.953Z,69.30
2018-04-30T02:01:51.154Z,69.30
2018-04-30T02:04:17.345Z,70.00
2018-04-30T02:06:43.942Z,70.20
2018-04-30T02:09:10.129Z,70.20
2018-04-30T02:11:36.356Z,70.20
2018-04-30T02:14:02.600Z,68.80
2018-04-30T02:16:28.811Z,67.60
2018-04-30T02:18:55.028Z,64.40
2018-04-30T02:21:21.664Z,61.20
2018-04-30T02:23:47.872Z,61.20
2018-04-30T02:26:14.122Z,62.30
2018-04-30T02:28:41.272Z,62.10
2018-04-30T02:31:07.500Z,61.80
2018-04-30T02:33:33.813Z,62.00
2018-04-30T02:36:00.680Z,60.60
2018-04-30T02:38:26.929Z,60.00
2018-04-30T02:40:53.159Z,59.40
2018-04-30T02:43:19.364Z,59.40
2018-04-30T02:45:45.602Z,59.20
2018-04-30T02:48:11.838Z,57.60
2018-04-30T02:50:38.094Z,57.30
2018-04-30T02:53:04.320Z,57.40
2018-04-30T02:55:30.540Z,56.80
2018-04-30T02:57:56.768Z,56.50
2018-04-30T03:00:23.012Z,56.90
2018-04-30T03:02:50.169Z,57.00
2018-04-30T03:05:16.389Z,55.20
2018-04-30T03:07:42.590Z,54.70
2018-04-30T03:10:08.816Z,55.20
2018-04-30T03:12:35.030Z,55.10
2018-04-30T03:15:01.262Z,56.00
2018-04-30T03:17:27.478Z,55.30
2018-04-30T03:19:53.712Z,54.40
2018-04-30T03:22:19.911Z,54.80
2018-04-30T03:24:46.904Z,54.90
2018-04-30T03:27:13.128Z,55.30
2018-04-30T03:29:39.352Z,55.00
2018-04-30T03:32:05.620Z,55.40
2018-04-30T03:34:31.816Z,56.50
2018-04-30T03:36:58.034Z,56.20
2018-04-30T03:39:24.255Z,55.70
2018-04-30T03:41:50.479Z,56.40
2018-04-30T03:44:16.681Z,57.20
2018-04-30T03:46:43.280Z,57.30
2018-04-30T03:49:09.486Z,57.30
2018-04-30T03:51:35.698Z,58.60
2018-04-30T03:54:01.904Z,58.60
2018-04-30T03:56:28.123Z,59.10
2018-04-30T03:58:54.319Z,59.90
2018-04-30T04:01:32.757Z,60.40
2018-04-30T04:04:11.152Z,61.00
2018-04-30T04:06:49.463Z,62.60
2018-04-30T04:09:15.660Z,64.20
2018-04-30T04:11:43.389Z,66.00
2018-04-30T04:14:09.962Z,68.20
2018-04-30T04:16:36.192Z,68.20
2018-04-30T04:19:02.406Z,68.50
2018-04-30T04:21:29.258Z,68.70
2018-04-30T04:23:55.475Z,70.00
2018-04-30T04:26:21.705Z,69.80
2018-04-30T04:28:47.915Z,70.00
2018-04-30T04:31:14.507Z,72.40
2018-04-30T04:33:41.542Z,72.40
2018-04-30T04:36:08.295Z,74.20
2018-04-30T04:38:34.503Z,74.60
2018-04-30T04:41:00.761Z,75.50
2018-04-30T04:43:26.970Z,75.20
2018-04-30T04:45:53.153Z,76.40
2018-04-30T04:48:19.732Z,76.40
2018-04-30T04:50:45.935Z,76.40
2018-04-30T04:53:12.143Z,76.50
2018-04-30T04:55:38.741Z,77.00
2018-04-30T04:58:05.005Z,77.00
2018-04-30T05:00:32.013Z,76.70
2018-04-30T05:02:58.267Z,77.90
2018-04-30T05:05:24.473Z,79.00
2018-04-30T05:07:50.716Z,75.10
2018-04-30T05:10:17.885Z,75.30
2018-04-30T05:12:45.245Z,76.70
2018-04-30T05:15:11.438Z,76.60
2018-04-30T05:17:37.669Z,78.00
2018-04-30T05:20:03.892Z,78.80
2018-04-30T05:22:30.138Z,78.20
2018-04-30T05:24:56.381Z,77.10
2018-04-30T05:27:22.980Z,78.20
2018-04-30T05:29:49.187Z,78.20
2018-04-30T05:32:15.452Z,75.50
2018-04-30T05:34:41.724Z,77.00
2018-04-30T05:37:07.973Z,77.20
2018-04-30T05:39:34.295Z,77.50
2018-04-30T05:42:00.521Z,76.10
2018-04-30T05:44:26.892Z,75.20
2018-04-30T05:46:53.214Z,77.10
2018-04-30T05:49:19.470Z,77.10
2018-04-30T05:51:45.661Z,75.90
2018-04-30T05:54:11.888Z,76.50
2018-04-30T05:56:38.082Z,75.40
2018-04-30T05:59:04.313Z,75.40
2018-04-30T06:01:31.056Z,76.30
2018-04-30T06:03:58.107Z,76.50
2018-04-30T06:06:24.339Z,77.30
2018-04-30T06:08:50.553Z,78.80
2018-04-30T06:11:16.756Z,78.70
2018-04-30T06:13:42.969Z,78.30
2018-04-30T06:16:09.168Z,77.80
2018-04-30T06:18:36.196Z,78.50
2018-04-30T06:21:02.419Z,78.40
2018-04-30T06:23:28.711Z,77.80
2018-04-30T06:25:54.917Z,74.70
2018-04-30T06:28:21.155Z,75.40
2018-04-30T06:30:47.356Z,73.70
2018-04-30T06:33:13.594Z,73.20
2018-04-30T06:35:40.408Z,73.30
2018-04-30T06:38:06.764Z,74.00
2018-04-30T06:40:32.998Z,74.60
2018-04-30T06:42:59.203Z,74.50
2018-04-30T06:45:25.431Z,74.30
2018-04-30T06:47:51.685Z,75.90
2018-04-30T06:50:17.889Z,75.80
2018-04-30T06:52:44.134Z,76.30
2018-04-30T06:55:10.348Z,76.60
2018-04-30T06:57:36.563Z,75.90
2018-04-30T07:00:02.861Z,75.90
2018-04-30T07:02:29.483Z,78.10
2018-04-30T07:04:55.709Z,78.10
2018-04-30T07:07:21.966Z,78.20
2018-04-30T07:09:48.204Z,77.70
2018-04-30T07:12:14.412Z,76.50
2018-04-30T07:14:40.993Z,76.70
2018-04-30T07:17:07.213Z,76.70
2018-04-30T07:19:33.464Z,74.80
2018-04-30T07:21:59.700Z,74.80
2018-04-30T07:24:25.900Z,73.70
2018-04-30T07:26:52.151Z,73.80
2018-04-30T07:29:18.381Z,75.80
2018-04-30T07:31:44.595Z,73.70
2018-04-30T07:34:10.818Z,75.30
2018-04-30T07:36:37.028Z,73.10
2018-04-30T07:39:03.286Z,74.50
2018-04-30T07:41:29.496Z,73.70
2018-04-30T07:43:55.745Z,72.50
2018-04-30T07:46:21.987Z,71.30
2018-04-30T07:48:48.608Z,70.90
2018-04-30T07:51:14.806Z,70.90
2018-04-30T07:53:41.052Z,71.20
2018-04-30T07:56:07.261Z,71.30
2018-04-30T07:58:33.493Z,70.60
2018-04-30T08:00:59.739Z,70.10
2018-04-30T08:03:25.973Z,71.90
2018-04-30T08:05:52.174Z,71.50
2018-04-30T08:08:18.402Z,71.70
2018-04-30T08:10:44.638Z,69.30
2018-04-30T08:13:10.909Z,68.70
2018-04-30T08:15:37.193Z,69.80
2018-04-30T08:18:03.417Z,69.10
2018-04-30T08:20:29.612Z,68.10
2018-04-30T08:22:56.276Z,67.00
2018-04-30T08:25:22.507Z,67.00
2018-04-30T08:27:49.676Z,66.70
2018-04-30T08:30:15.928Z,68.30
2018-04-30T08:32:42.143Z,67.30
2018-04-30T08:35:08.376Z,65.60
2018-04-30T08:37:34.624Z,65.50
2018-04-30T08:40:00.847Z,63.50
2018-04-30T08:42:27.125Z,63.80
2018-04-30T08:44:53.297Z,63.80
2018-04-30T08:47:19.501Z,63.80
2018-04-30T08:49:45.765Z,63.10
2018-04-30T08:52:12.023Z,62.60
2018-04-30T08:54:38.252Z,61.70
2018-04-30T08:57:04.514Z,60.70
2018-04-30T08:59:30.764Z,60.60
2018-04-30T09:01:57.003Z,61.60
2018-04-30T09:04:23.219Z,62.00
2018-04-30T09:06:49.437Z,60.50
2018-04-30T09:09:15.693Z,58.60
2018-04-30T09:11:41.896Z,59.10
2018-04-30T09:14:08.149Z,57.50
2018-04-30T09:16:34.379Z,59.60
2018-04-30T09:19:00.601Z,57.60
2018-04-30T09:21:26.820Z,57.20
2018-04-30T09:23:53.053Z,54.40
2018-04-30T09:26:19.281Z,53.70
2018-04-30T09:28:45.490Z,55.80
2018-04-30T09:31:11.738Z,56.90
2018-04-30T09:33:37.985Z,54.80
2018-04-30T09:36:04.616Z,54.60
2018-04-30T09:38:30.866Z,54.60
2018-04-30T09:40:57.143Z,54.60
2018-04-30T09:43:23.371Z,53.50
2018-04-30T09:45:49.574Z,54.50
2018-04-30T09:48:15.790Z,54.90
2018-04-30T09:50:42.011Z,53.30
2018-04-30T09:53:08.206Z,53.50
2018-04-30T09:55:34.448Z,52.80
2018-04-30T09:58:00.660Z,54.50
2018-04-30T10:00:26.893Z,52.30
2018-04-30T10:02:53.102Z,51.90
2018-04-30T10:05:19.329Z,52.00
2018-04-30T10:07:45.534Z,52.30
2018-04-30T10:10:11.776Z,53.20
2018-04-30T10:12:38.054Z,51.90
2018-04-30T10:15:04.335Z,51.20
2018-04-30T10:17:30.554Z,51.30
2018-04-30T10:19:56.802Z,52.00
2018-04-30T10:22:23.029Z,52.00
2018-04-30T10:24:50.235Z,51.20
2018-04-30T10:27:16.494Z,50.60
2018-04-30T10:29:42.700Z,52.80
2018-04-30T10:32:08.953Z,50.70
2018-04-30T10:34:35.181Z,51.70
2018-04-30T10:37:01.422Z,51.10
2018-04-30T10:39:27.637Z,49.80
2018-04-30T10:41:53.935Z,48.50
2018-04-30T10:44:20.142Z,49.80
2018-04-30T10:46:46.744Z,47.20
2018-04-30T10:49:12.950Z,47.20
2018-04-30T10:51:39.220Z,48.10
2018-04-30T10:54:05.420Z,48.20
2018-04-30T10:56:31.667Z,47.80
2018-04-30T10:58:57.900Z,44.10
2018-04-30T11:01:24.167Z,43.50
2018-04-30T11:03:50.742Z,42.70
2018-04-30T11:06:16.999Z,39.10
2018-04-30T11:08:43.184Z,35.30
2018-04-30T11:11:09.398Z,36.50
2018-04-30T11:13:35.608Z,36.90
2018-04-30T11:16:03.161Z,36.40
2018-04-30T11:18:29.829Z,35.90
2018-04-30T11:20:56.093Z,35.90
2018-04-30T11:23:22.356Z,34.70
2018-04-30T11:25:48.972Z,32.50
2018-04-30T11:28:15.200Z,32.50
2018-04-30T11:30:42.215Z,33.40
2018-04-30T11:33:08.532Z,34.10
2018-04-30T11:35:34.730Z,35.80
2018-04-30T11:38:00.964Z,36.20
2018-04-30T11:40:27.228Z,33.70
2018-04-30T11:42:53.476Z,34.10
2018-04-30T11:45:19.709Z,33.90
2018-04-30T11:47:46.066Z,37.60
2018-04-30T11:50:12.274Z,36.60
2018-04-30T11:52:38.493Z,36.20
2018-04-30T11:55:04.690Z,36.20
2018-04-30T11:57:30.965Z,35.00
2018-04-30T11:59:57.204Z,35.00
2018-04-30T12:02:23.530Z,35.10
2018-04-30T12:04:49.794Z,36.90
2018-04-30T12:07:15.948Z,35.40
2018-04-30T12:09:42.180Z,34.80
2018-04-30T12:12:08.428Z,34.80
2018-04-30T12:14:35.058Z,34.20
2018-04-30T12:17:01.371Z,34.20
2018-04-30T12:19:27.596Z,34.40
2018-04-30T12:21:53.853Z,36.10
2018-04-30T12:24:20.133Z,37.00
2018-04-30T12:26:46.418Z,36.60
2018-04-30T12:29:13.034Z,35.20
2018-04-30T12:31:39.304Z,35.30
2018-04-30T12:34:05.538Z,35.10
2018-04-30T12:36:31.815Z,35.00
2018-04-30T12:38:58.045Z,32.10
2018-04-30T12:41:24.260Z,34.20
2018-04-30T12:43:50.516Z,33.00
2018-04-30T12:46:16.747Z,31.00
2018-04-30T12:48:43.011Z,31.90
2018-04-30T12:51:09.541Z,33.00
2018-04-30T12:53:35.801Z,34.00
2018-04-30T12:56:02.080Z,34.90
2018-04-30T12:58:28.283Z,33.80
2018-04-30T13:00:54.536Z,33.60
2018-04-30T13:03:20.858Z,33.70
2018-04-30T13:05:47.118Z,34.20
2018-04-30T13:08:13.401Z,33.30
2018-04-30T13:10:39.667Z,33.50
2018-04-30T13:13:05.946Z,31.50
2018-04-30T13:15:32.227Z,33.30
2018-04-30T13:17:58.565Z,30.80
2018-04-30T13:20:24.803Z,31.60
2018-04-30T13:22:51.011Z,29.10
2018-04-30T13:25:17.279Z,30.80
2018-04-30T13:27:43.541Z,33.00
2018-04-30T13:30:09.747Z,31.40
2018-04-30T13:32:35.991Z,32.20
2018-04-30T13:35:02.204Z,31.70
2018-04-30T13:37:28.561Z,33.30
2018-04-30T13:39:54.976Z,32.00
2018-04-30T13:42:21.300Z,30.90
2018-04-30T13:44:47.514Z,30.40
2018-04-30T13:47:13.725Z,31.00
2018-04-30T13:49:39.988Z,30.30
2018-04-30T13:52:06.201Z,30.60
2018-04-30T13:54:32.480Z,30.10
2018-04-30T13:56:58.657Z,30.30
2018-04-30T13:59:24.914Z,29.80
2018-04-30T14:01:51.161Z,29.90
2018-04-30T14:04:17.349Z,32.60
2018-04-30T14:06:43.573Z,29.30
2018-04-30T14:09:09.797Z,28.80
2018-04-30T14:11:36.022Z,30.50
2018-04-30T14:14:02.316Z,28.80
2018-04-30T14:16:28.969Z,31.00
2018-04-30T14:18:55.237Z,31.10
2018-04-30T14:21:21.456Z,28.30
2018-04-30T14:23:47.675Z,27.90
2018-04-30T14:26:14.591Z,28.40
2018-04-30T14:28:41.160Z,30.50
2018-04-30T14:31:07.399Z,30.50
2018-04-30T14:33:33.626Z,32.30
2018-04-30T14:35:59.851Z,32.20
2018-04-30T14:38:26.144Z,32.50
2018-04-30T14:40:52.338Z,33.50
2018-04-30T14:43:18.611Z,33.70
2018-04-30T14:45:44.806Z,34.30
2018-04-30T14:48:11.058Z,34.10
2018-04-30T14:50:37.284Z,34.80
2018-04-30T14:53:03.889Z,34.60
2018-04-30T14:55:30.140Z,34.60
2018-04-30T14:57:56.728Z,33.80
2018-04-30T15:00:22.965Z,33.80
2018-04-30T15:02:49.261Z,34.90
2018-04-30T15:05:15.526Z,34.90
2018-04-30T15:07:41.738Z,35.10
2018-04-30T15:10:08.006Z,35.50
2018-04-30T15:12:34.249Z,36.00
2018-04-30T15:15:00.888Z,36.70
2018-04-30T15:17:27.508Z,36.60
2018-04-30T15:19:53.752Z,36.60
2018-04-30T15:22:20.344Z,38.10
2018-04-30T15:24:46.583Z,38.10
2018-04-30T15:27:12.776Z,37.70
2018-04-30T15:29:39.035Z,37.00
2018-04-30T15:32:05.292Z,37.10
2018-04-30T15:34:31.897Z,37.70
2018-04-30T15:36:58.116Z,37.60
2018-04-30T15:39:24.349Z,35.90
2018-04-30T15:41:50.573Z,34.20
2018-04-30T15:44:17.417Z,35.10
2018-04-30T15:46:43.644Z,35.00
2018-04-30T15:49:09.885Z,34.10
2018-04-30T15:51:36.112Z,34.10
2018-04-30T15:54:02.383Z,36.00
2018-04-30T15:56:28.968Z,37.80
2018-04-30T15:58:55.180Z,37.80
2018-04-30T16:01:21.417Z,38.00
2018-04-30T16:03:48.516Z,35.70
2018-04-30T16:06:15.114Z,36.00
2018-04-30T16:08:41.366Z,35.90
2018-04-30T16:11:07.652Z,37.40
2018-04-30T16:13:33.933Z,38.80
2018-04-30T16:16:00.545Z,38.80
2018-04-30T16:18:26.808Z,38.80
2018-04-30T16:20:53.417Z,37.50
2018-04-30T16:23:19.654Z,37.50
2018-04-30T16:25:45.896Z,38.10
2018-04-30T16:28:12.153Z,37.30
2018-04-30T16:30:38.401Z,37.90
2018-04-30T16:33:05.488Z,35.70
2018-04-30T16:35:32.658Z,36.20
2018-04-30T16:37:59.240Z,35.30
2018-04-30T16:40:25.511Z,35.30
2018-04-30T16:42:51.775Z,35.10
2018-04-30T16:45:18.030Z,36.40
2018-04-30T16:47:44.239Z,37.20
2018-04-30T16:50:10.485Z,37.30
2018-04-30T16:52:36.745Z,38.10
2018-04-30T16:55:03.012Z,37.80
2018-04-30T16:57:29.235Z,38.10
2018-04-30T16:59:55.894Z,39.10
2018-04-30T17:02:22.120Z,39.10
2018-04-30T17:04:48.373Z,39.40
2018-04-30T17:07:14.613Z,38.50
2018-04-30T17:09:40.863Z,38.50
2018-04-30T17:12:07.087Z,38.90
2018-04-30T17:14:33.296Z,40.00
2018-04-30T17:16:59.596Z,39.40
2018-04-30T17:19:25.785Z,39.70
2018-04-30T17:21:52.915Z,39.80
2018-04-30T17:24:19.229Z,40.70
2018-04-30T17:26:45.432Z,40.50
2018-04-30T17:29:11.648Z,40.90
2018-04-30T17:31:37.893Z,42.00
2018-04-30T17:34:04.149Z,42.50
2018-04-30T17:36:30.486Z,42.40
2018-04-30T17:38:56.686Z,42.20
2018-04-30T17:41:22.933Z,43.20
2018-04-30T17:43:49.180Z,43.10
2018-04-30T17:46:15.453Z,43.90
2018-04-30T17:48:41.677Z,43.50
2018-04-30T17:51:08.955Z,43.00
2018-04-30T17:53:35.200Z,43.80
2018-04-30T17:56:01.481Z,44.40
2018-04-30T17:58:27.696Z,44.60
2018-04-30T18:00:53.911Z,46.60
2018-04-30T18:03:20.127Z,46.40
2018-04-30T18:05:46.337Z,46.00
2018-04-30T18:08:12.595Z,50.60
2018-04-30T18:10:38.835Z,47.30
2018-04-30T18:13:05.427Z,50.60
2018-04-30T18:15:31.700Z,50.60
2018-04-30T18:17:57.996Z,49.80
2018-04-30T18:20:25.268Z,47.90
2018-04-30T18:22:51.888Z,48.00
2018-04-30T18:25:18.125Z,48.00
2018-04-30T18:27:44.696Z,49.00
2018-04-30T18:30:11.591Z,49.00
2018-04-30T18:32:37.852Z,49.00
2018-04-30T18:35:04.465Z,52.00
2018-04-30T18:37:30.710Z,52.00
2018-04-30T18:39:57.305Z,48.20
2018-04-30T18:42:23.563Z,48.20
2018-04-30T18:44:50.434Z,48.80
2018-04-30T18:47:17.040Z,49.70
2018-04-30T18:49:43.218Z,49.70
2018-04-30T18:52:10.353Z,49.70
2018-04-30T18:54:36.600Z,50.00
2018-04-30T18:57:02.871Z,51.70
2018-04-30T18:59:29.099Z,51.90
2018-04-30T19:01:55.353Z,50.20
2018-04-30T19:04:21.578Z,50.40
2018-04-30T19:06:47.820Z,50.90
2018-04-30T19:09:14.137Z,51.40
2018-04-30T19:11:40.734Z,51.40
2018-04-30T19:14:07.005Z,51.40
2018-04-30T19:16:33.611Z,55.00
2018-04-30T19:18:59.888Z,55.00
2018-04-30T19:21:26.183Z,53.50
2018-04-30T19:23:52.440Z,49.90
2018-04-30T19:26:18.723Z,52.40
2018-04-30T19:28:44.954Z,53.40
2018-04-30T19:31:12.198Z,51.20
2018-04-30T19:33:38.503Z,51.60
2018-04-30T19:36:04.849Z,50.30
2018-04-30T19:38:31.057Z,51.50
2018-04-30T19:40:57.342Z,53.70
2018-04-30T19:43:23.562Z,51.30
2018-04-30T19:45:49.903Z,53.90
2018-04-30T19:48:16.151Z,52.20
2018-04-30T19:50:42.443Z,50.90
2018-04-30T19:53:08.719Z,50.60
2018-04-30T19:55:35.034Z,52.30
2018-04-30T19:58:01.272Z,49.90
2018-04-30T20:00:28.485Z,51.20
2018-04-30T20:02:54.720Z,52.10
2018-04-30T20:05:20.935Z,50.60
2018-04-30T20:07:47.138Z,51.10
2018-04-30T20:10:13.402Z,51.60
2018-04-30T20:12:39.650Z,51.10
2018-04-30T20:15:06.287Z,52.20
2018-04-30T20:17:32.542Z,52.20
2018-04-30T20:19:58.805Z,50.90
2018-04-30T20:22:25.182Z,51.20
2018-04-30T20:24:51.539Z,53.40
2018-04-30T20:27:17.776Z,53.50
2018-04-30T20:29:44.081Z,53.00
2018-04-30T20:32:17.190Z,53.10
2018-04-30T20:34:43.450Z,53.80
2018-04-30T20:37:09.701Z,54.00
2018-04-30T20:39:35.965Z,54.40
2018-04-30T20:42:02.263Z,52.50
2018-04-30T20:44:28.926Z,54.50
2018-04-30T20:46:55.483Z,53.30
2018-04-30T20:49:21.722Z,53.30
2018-04-30T20:51:47.976Z,54.20
2018-04-30T20:54:14.197Z,54.80
2018-04-30T20:56:40.424Z,55.60
2018-04-30T20:59:06.655Z,55.50
2018-04-30T21:01:33.400Z,55.30
2018-04-30T21:03:59.628Z,55.10
2018-04-30T21:06:25.941Z,53.80
2018-04-30T21:09:04.231Z,56.90
2018-04-30T21:11:30.425Z,57.60
2018-04-30T21:13:57.016Z,56.60
2018-04-30T21:16:23.366Z,56.60
2018-04-30T21:18:49.568Z,56.60
2018-04-30T21:21:15.827Z,56.60
2018-04-30T21:23:42.083Z,57.10
2018-04-30T21:26:08.381Z,57.30
2018-04-30T21:28:34.625Z,57.70
2018-04-30T21:31:00.827Z,58.30
2018-04-30T21:33:27.055Z,58.30
2018-04-30T21:35:53.302Z,57.30
2018-04-30T21:38:20.123Z,57.70
2018-04-30T21:40:46.344Z,57.40
2018-04-30T21:43:12.595Z,58.50
2018-04-30T21:45:38.817Z,58.60
2018-04-30T21:48:05.066Z,59.40
2018-04-30T21:50:31.296Z,59.20
2018-04-30T21:52:58.444Z,59.70
2018-04-30T21:55:25.033Z,59.90
2018-04-30T21:57:51.902Z,59.90
2018-04-30T22:00:18.147Z,59.90
2018-04-30T22:02:44.715Z,60.90
2018-04-30T22:05:10.962Z,60.90
2018-04-30T22:07:37.175Z,60.30
2018-04-30T22:10:03.530Z,60.30
2018-04-30T22:12:29.810Z,58.70
2018-04-30T22:14:56.072Z,59.90
2018-04-30T22:17:22.299Z,59.00
2018-04-30T22:19:48.561Z,57.90
2018-04-30T22:22:14.814Z,58.40
2018-04-30T22:24:41.430Z,58.10
2018-04-30T22:27:07.685Z,58.10
2018-04-30T22:29:34.267Z,58.70
2018-04-30T22:32:00.518Z,58.70
2018-04-30T22:34:26.758Z,58.30
2018-04-30T22:36:53.001Z,58.30
2018-04-30T22:39:19.194Z,56.70
2018-04-30T22:41:45.412Z,57.50
2018-04-30T22:44:11.621Z,58.80
2018-04-30T22:46:37.819Z,58.70
2018-04-30T22:49:04.065Z,59.40
2018-04-30T22:51:30.278Z,59.50
2018-04-30T22:53:56.493Z,59.80
2018-04-30T22:56:22.715Z,60.80
2018-04-30T22:58:48.945Z,61.00
2018-04-30T23:01:15.137Z,61.80
2018-04-30T23:03:41.357Z,61.40
2018-04-30T23:06:07.578Z,60.30
2018-04-30T23:08:33.782Z,61.40
2018-04-30T23:11:00.053Z,61.20
2018-04-30T23:13:26.268Z,59.90
2018-04-30T23:15:52.489Z,59.70
2018-04-30T23:18:18.749Z,59.50
2018-04-30T23:20:44.979Z,59.90
2018-04-30T23:23:11.193Z,61.50
2018-04-30T23:25:37.447Z,61.60
2018-04-30T23:28:03.664Z,61.20
2018-04-30T23:30:29.887Z,60.30
2018-04-30T23:32:56.129Z,60.60
2018-04-30T23:35:22.356Z,61.60
2018-04-30T23:37:48.602Z,62.70
2018-04-30T23:40:14.830Z,62.60
2018-04-30T23:42:41.053Z,62.60
2018-04-30T23:45:07.315Z,63.00
2018-04-30T23:47:33.521Z,63.60
2018-04-30T23:50:00.124Z,62.80
2018-04-30T23:52:26.363Z,62.90
2018-04-30T23:54:52.600Z,62.60
2018-04-30T23:57:18.816Z,61.00
2018-04-30T23:59:45.051Z,62.40
